createdAt,value
2019-05-07T00:02:18.953Z,7.40
2019-05-07T00:04:47.649Z,6.90
2019-05-07T00:07:16.180Z,7.63
2019-05-07T00:09:44.760Z,11.37
2019-05-07T00:12:13.227Z,7.73
2019-05-07T00:14:42.906Z,6.80
2019-05-07T00:17:13.065Z,7.83
2019-05-07T00:19:43.164Z,5.83
2019-05-07T00:22:12.518Z,6.78
2019-05-07T00:24:42.600Z,8.43
2019-05-07T00:27:13.127Z,8.30
2019-05-07T00:29:42.874Z,7.13
2019-05-07T00:32:12.150Z,7.50
2019-05-07T00:34:42.641Z,6.80
2019-05-07T00:37:13.161Z,7.03
2019-05-07T00:39:43.403Z,8.10
2019-05-07T00:42:25.724Z,6.12
2019-05-07T00:45:13.240Z,8.08
2019-05-07T00:47:28.806Z,6.57
2019-05-07T00:49:59.043Z,7.10
2019-05-07T00:52:27.672Z,7.50
2019-05-07T00:54:56.241Z,6.78
2019-05-07T00:57:24.705Z,6.72
2019-05-07T00:59:53.217Z,8.23
2019-05-07T01:02:23.090Z,6.53
2019-05-07T01:04:53.201Z,6.83
2019-05-07T01:07:22.955Z,6.78
2019-05-07T01:09:52.439Z,7.67
2019-05-07T01:12:22.156Z,7.80
2019-05-07T01:14:52.793Z,7.22
2019-05-07T01:17:22.678Z,7.78
2019-05-07T01:19:53.237Z,6.05
2019-05-07T01:22:22.265Z,6.33
2019-05-07T01:24:52.577Z,7.92
2019-05-07T01:27:22.652Z,8.70
2019-05-07T01:29:52.799Z,7.55
2019-05-07T01:32:23.086Z,6.47
2019-05-07T01:34:56.063Z,7.10
2019-05-07T01:37:24.618Z,6.72
2019-05-07T01:39:53.172Z,7.45
2019-05-07T01:42:22.214Z,7.05
2019-05-07T01:44:52.834Z,8.95
2019-05-07T01:47:23.404Z,7.53
2019-05-07T01:49:52.409Z,8.55
2019-05-07T01:52:22.636Z,8.00
2019-05-07T01:54:52.290Z,8.55
2019-05-07T01:57:22.956Z,10.45
2019-05-07T01:59:52.763Z,8.20
2019-05-07T02:02:23.167Z,10.05
2019-05-07T02:04:56.086Z,9.50
2019-05-07T02:07:29.181Z,10.40
2019-05-07T02:10:08.138Z,8.10
2019-05-07T02:12:37.916Z,6.80
2019-05-07T02:15:07.996Z,10.68
2019-05-07T02:17:36.531Z,12.70
2019-05-07T02:20:06.724Z,10.55
2019-05-07T02:22:35.266Z,10.45
2019-05-07T02:25:04.402Z,10.35
2019-05-07T02:27:33.078Z,14.78
2019-05-07T02:30:04.668Z,11.97
2019-05-07T02:32:33.794Z,10.90
2019-05-07T02:35:03.995Z,12.93
2019-05-07T02:37:46.885Z,12.40
2019-05-07T02:40:08.269Z,10.90
2019-05-07T02:42:36.878Z,9.73
2019-05-07T02:45:08.142Z,9.45
2019-05-07T02:47:36.624Z,11.48
2019-05-07T02:50:13.057Z,16.12
2019-05-07T02:52:53.639Z,12.43
2019-05-07T02:55:23.610Z,13.60
2019-05-07T02:57:53.961Z,17.25
2019-05-07T03:00:24.129Z,13.85
2019-05-07T03:02:53.240Z,16.87
2019-05-07T03:05:22.941Z,16.05
2019-05-07T03:07:53.482Z,13.78
2019-05-07T03:10:23.739Z,15.55
2019-05-07T03:12:53.618Z,20.92
2019-05-07T03:15:24.207Z,14.83
2019-05-07T03:17:53.789Z,16.65
2019-05-07T03:20:24.187Z,23.62
2019-05-07T03:22:53.788Z,21.12
2019-05-07T03:25:26.672Z,23.20
2019-05-07T03:27:55.379Z,20.88
2019-05-07T03:30:26.455Z,17.25
2019-05-07T03:33:16.077Z,20.88
2019-05-07T03:35:46.900Z,24.02
2019-05-07T03:38:15.544Z,22.82
2019-05-07T03:40:44.853Z,26.02
2019-05-07T03:43:14.309Z,20.52
2019-05-07T03:45:56.700Z,21.77
2019-05-07T03:48:26.888Z,23.30
2019-05-07T03:50:55.497Z,25.25
2019-05-07T03:53:24.035Z,27.30
2019-05-07T03:55:53.676Z,24.75
2019-05-07T03:58:23.784Z,26.68
2019-05-07T04:00:53.559Z,21.90
2019-05-07T04:03:24.258Z,21.73
2019-05-07T04:05:53.371Z,23.80
2019-05-07T04:08:23.772Z,33.80
2019-05-07T04:10:53.847Z,22.25
2019-05-07T04:13:23.928Z,21.02
2019-05-07T04:15:52.799Z,28.00
2019-05-07T04:18:23.749Z,26.90
2019-05-07T04:20:53.976Z,19.32
2019-05-07T04:23:23.224Z,19.90
2019-05-07T04:26:08.932Z,20.60
2019-05-07T04:28:55.323Z,21.17
2019-05-07T04:31:25.630Z,24.32
2019-05-07T04:33:55.583Z,26.70
2019-05-07T04:36:25.829Z,17.45
2019-05-07T04:38:54.386Z,25.80
2019-05-07T04:41:23.500Z,20.32
2019-05-07T04:43:54.037Z,19.73
2019-05-07T04:46:23.607Z,16.10
2019-05-07T04:48:52.782Z,19.35
2019-05-07T04:51:23.418Z,18.90
2019-05-07T04:53:54.033Z,15.75
2019-05-07T04:56:23.819Z,15.60
2019-05-07T04:58:53.253Z,12.85
2019-05-07T05:01:23.741Z,17.70
2019-05-07T05:03:54.000Z,12.88
2019-05-07T05:06:24.238Z,11.68
2019-05-07T05:08:56.063Z,12.60
2019-05-07T05:11:23.823Z,10.48
2019-05-07T05:13:53.332Z,11.97
2019-05-07T05:16:25.923Z,10.10
2019-05-07T05:18:56.005Z,6.58
2019-05-07T05:21:44.489Z,10.72
2019-05-07T05:24:14.802Z,8.33
2019-05-07T05:26:43.346Z,5.92
2019-05-07T05:29:12.230Z,5.85
2019-05-07T05:31:42.180Z,8.95
2019-05-07T05:34:12.963Z,5.67
2019-05-07T05:36:42.443Z,5.90
2019-05-07T05:39:13.155Z,5.47
2019-05-07T05:41:43.754Z,5.60
2019-05-07T05:44:26.119Z,6.60
2019-05-07T05:46:54.594Z,5.35
2019-05-07T05:49:23.139Z,4.75
2019-05-07T05:51:59.234Z,8.40
2019-05-07T05:54:31.720Z,6.27
2019-05-07T05:57:02.601Z,6.10
2019-05-07T05:59:51.718Z,5.17
2019-05-07T06:02:28.231Z,5.37
2019-05-07T06:04:58.409Z,5.30
2019-05-07T06:07:42.724Z,6.23
2019-05-07T06:10:29.270Z,5.47
2019-05-07T06:13:02.544Z,5.77
2019-05-07T06:15:48.463Z,6.60
2019-05-07T06:18:34.352Z,8.30
2019-05-07T06:21:20.823Z,5.83
2019-05-07T06:23:52.799Z,5.40
2019-05-07T06:26:22.695Z,6.57
2019-05-07T06:28:51.899Z,10.63
2019-05-07T06:31:22.175Z,7.80
2019-05-07T06:33:52.343Z,5.03
2019-05-07T06:36:22.014Z,4.93
2019-05-07T06:38:53.101Z,4.10
2019-05-07T06:41:41.748Z,4.83
2019-05-07T06:44:12.702Z,4.63
2019-05-07T06:46:41.915Z,5.33
2019-05-07T06:49:12.537Z,5.20
2019-05-07T06:51:41.962Z,4.77
2019-05-07T06:54:12.848Z,4.83
2019-05-07T06:56:42.154Z,4.37
2019-05-07T06:59:13.027Z,4.37
2019-05-07T07:01:43.372Z,5.97
2019-05-07T07:04:19.408Z,11.20
2019-05-07T07:06:49.648Z,4.87
2019-05-07T07:09:28.837Z,5.10
2019-05-07T07:12:14.706Z,5.30
2019-05-07T07:14:43.255Z,7.80
2019-05-07T07:17:12.892Z,6.63
2019-05-07T07:19:42.794Z,5.70
2019-05-07T07:22:12.970Z,6.57
2019-05-07T07:24:42.443Z,6.80
2019-05-07T07:27:13.200Z,7.53
2019-05-07T07:29:44.996Z,5.87
2019-05-07T07:32:14.926Z,8.03
2019-05-07T07:34:45.155Z,9.10
2019-05-07T07:37:27.188Z,6.10
2019-05-07T07:40:09.253Z,6.27
2019-05-07T07:42:37.763Z,10.90
2019-05-07T07:45:16.849Z,8.47
2019-05-07T07:47:46.434Z,6.30
2019-05-07T07:50:15.664Z,7.87
2019-05-07T07:52:44.410Z,6.70
2019-05-07T07:55:14.209Z,7.80
2019-05-07T07:57:53.367Z,8.20
2019-05-07T08:00:32.991Z,7.27
2019-05-07T08:03:03.232Z,7.03
2019-05-07T08:05:32.544Z,9.23
2019-05-07T08:08:02.252Z,7.03
2019-05-07T08:10:32.581Z,6.70
2019-05-07T08:13:01.989Z,7.83
2019-05-07T08:15:32.865Z,7.07
2019-05-07T08:18:02.880Z,9.60
2019-05-07T08:20:32.632Z,7.33
2019-05-07T08:23:02.902Z,8.73
2019-05-07T08:25:49.498Z,6.57
2019-05-07T08:28:19.402Z,7.93
2019-05-07T08:31:07.391Z,6.30
2019-05-07T08:33:42.515Z,7.33
2019-05-07T08:36:14.870Z,6.60
2019-05-07T08:38:57.673Z,11.93
2019-05-07T08:41:27.593Z,7.83
2019-05-07T08:44:10.654Z,8.37
2019-05-07T08:46:30.011Z,7.20
2019-05-07T08:48:58.477Z,7.93
2019-05-07T08:51:27.112Z,8.67
2019-05-07T08:54:07.691Z,11.00
2019-05-07T08:56:36.976Z,8.47
2019-05-07T08:59:06.391Z,7.40
2019-05-07T09:01:36.666Z,11.67
2019-05-07T09:04:05.661Z,9.73
2019-05-07T09:06:34.336Z,9.23
2019-05-07T09:09:06.503Z,9.93
2019-05-07T09:11:35.139Z,8.67
2019-05-07T09:14:03.838Z,7.90
2019-05-07T09:16:32.465Z,8.40
2019-05-07T09:19:02.163Z,7.03
2019-05-07T09:21:32.174Z,8.43
2019-05-07T09:24:02.571Z,8.70
2019-05-07T09:26:44.963Z,7.13
2019-05-07T09:29:23.703Z,6.63
2019-05-07T09:31:53.910Z,10.30
2019-05-07T09:34:26.837Z,7.23
2019-05-07T09:37:02.245Z,8.10
2019-05-07T09:39:32.288Z,9.60
2019-05-07T09:42:02.204Z,5.97
2019-05-07T09:44:32.369Z,9.43
2019-05-07T09:47:02.637Z,5.93
2019-05-07T09:49:32.650Z,6.00
2019-05-07T09:52:03.259Z,6.30
2019-05-07T09:54:32.459Z,10.07
2019-05-07T09:57:01.916Z,6.17
2019-05-07T09:59:32.521Z,6.30
2019-05-07T10:02:01.862Z,6.63
2019-05-07T10:04:32.575Z,7.03
2019-05-07T10:07:02.565Z,8.30
2019-05-07T10:09:32.788Z,5.77
2019-05-07T10:12:03.192Z,11.53
2019-05-07T10:14:33.066Z,7.63
2019-05-07T10:17:15.071Z,6.17
2019-05-07T10:19:43.753Z,6.60
2019-05-07T10:22:12.705Z,9.10
2019-05-07T10:24:41.928Z,6.90
2019-05-07T10:27:12.705Z,6.40
2019-05-07T10:29:42.753Z,6.43
2019-05-07T10:32:12.813Z,6.87
2019-05-07T10:34:42.229Z,7.07
2019-05-07T10:37:12.026Z,6.67
2019-05-07T10:39:42.900Z,5.67
2019-05-07T10:42:12.318Z,6.60
2019-05-07T10:44:43.262Z,5.77
2019-05-07T10:47:29.453Z,6.90
2019-05-07T10:50:15.815Z,7.70
2019-05-07T10:52:44.469Z,8.30
2019-05-07T10:55:13.474Z,6.33
2019-05-07T10:57:42.327Z,6.50
2019-05-07T11:00:12.427Z,7.07
2019-05-07T11:02:42.591Z,6.67
2019-05-07T11:05:13.057Z,6.30
2019-05-07T11:07:42.196Z,7.20
2019-05-07T11:10:12.415Z,6.13
2019-05-07T11:12:42.428Z,6.73
2019-05-07T11:15:12.604Z,7.17
2019-05-07T11:17:54.769Z,6.77
2019-05-07T11:20:23.553Z,7.43
2019-05-07T11:22:52.298Z,6.60
2019-05-07T11:25:22.516Z,6.30
2019-05-07T11:27:52.368Z,6.70
2019-05-07T11:30:22.803Z,5.40
2019-05-07T11:32:52.268Z,6.90
2019-05-07T11:35:22.956Z,6.70
2019-05-07T11:37:52.136Z,6.63
2019-05-07T11:40:23.234Z,9.53
2019-05-07T11:43:09.963Z,6.70
2019-05-07T11:45:42.658Z,7.07
2019-05-07T11:48:13.312Z,6.07
2019-05-07T11:50:46.026Z,8.10
2019-05-07T11:53:18.874Z,6.93
2019-05-07T11:55:47.421Z,6.87
2019-05-07T11:58:16.384Z,8.00
2019-05-07T12:00:52.200Z,7.77
2019-05-07T12:03:22.124Z,6.90
2019-05-07T12:05:52.496Z,7.10
2019-05-07T12:08:22.416Z,7.57
2019-05-07T12:10:51.841Z,7.17
2019-05-07T12:13:21.819Z,6.13
2019-05-07T12:15:52.183Z,6.40
2019-05-07T12:18:22.507Z,6.73
2019-05-07T12:20:53.884Z,6.03
2019-05-07T12:23:22.585Z,6.40
2019-05-07T12:25:52.842Z,6.57
2019-05-07T12:28:22.535Z,6.43
2019-05-07T12:30:52.945Z,6.43
2019-05-07T12:33:23.190Z,6.17
2019-05-07T12:35:52.471Z,5.67
2019-05-07T12:38:21.961Z,8.37
2019-05-07T12:40:52.348Z,7.03
2019-05-07T12:43:20.771Z,7.00
2019-05-07T12:45:49.311Z,5.80
2019-05-07T12:48:17.874Z,5.80
2019-05-07T12:50:46.456Z,6.37
2019-05-07T12:53:16.669Z,6.40
2019-05-07T12:55:55.629Z,7.10
2019-05-07T12:58:24.240Z,6.63
2019-05-07T13:00:54.446Z,6.10
2019-05-07T13:03:27.415Z,7.90
2019-05-07T13:05:55.905Z,7.17
2019-05-07T13:08:24.546Z,7.13
2019-05-07T13:10:53.269Z,7.70
2019-05-07T13:13:21.980Z,6.37
2019-05-07T13:15:51.794Z,8.37
2019-05-07T13:18:22.491Z,8.97
2019-05-07T13:20:51.929Z,6.80
2019-05-07T13:23:22.498Z,8.07
2019-05-07T13:25:52.274Z,7.00
2019-05-07T13:28:20.869Z,7.23
2019-05-07T13:30:49.502Z,8.27
2019-05-07T13:33:18.638Z,7.93
2019-05-07T13:35:47.623Z,11.40
2019-05-07T13:38:21.356Z,7.73
2019-05-07T13:40:52.921Z,7.33
2019-05-07T13:43:29.710Z,8.93
2019-05-07T13:46:03.202Z,8.27
2019-05-07T13:48:32.396Z,7.70
2019-05-07T13:51:03.651Z,8.73
2019-05-07T13:53:34.561Z,7.37
2019-05-07T13:56:03.233Z,7.50
2019-05-07T13:58:33.025Z,7.50
2019-05-07T14:01:19.954Z,7.90
2019-05-07T14:03:50.121Z,7.37
2019-05-07T14:06:36.465Z,7.57
2019-05-07T14:09:08.637Z,7.70
2019-05-07T14:11:37.302Z,7.30
2019-05-07T14:14:08.341Z,7.23
2019-05-07T14:16:37.688Z,8.87
2019-05-07T14:19:07.396Z,6.93
2019-05-07T14:21:36.305Z,7.47
2019-05-07T14:24:06.384Z,7.93
2019-05-07T14:26:36.082Z,7.73
2019-05-07T14:29:05.146Z,7.00
2019-05-07T14:31:34.677Z,7.20
2019-05-07T14:34:04.878Z,7.53
2019-05-07T14:36:35.060Z,6.60
2019-05-07T14:39:08.767Z,8.30
2019-05-07T14:41:42.715Z,8.13
2019-05-07T14:44:12.217Z,7.93
2019-05-07T14:46:50.336Z,7.30
2019-05-07T14:49:12.175Z,6.93
2019-05-07T14:51:40.994Z,7.77
2019-05-07T14:54:09.710Z,7.67
2019-05-07T14:56:38.791Z,8.10
2019-05-07T14:59:07.975Z,8.80
2019-05-07T15:01:39.072Z,9.43
2019-05-07T15:04:08.395Z,7.20
2019-05-07T15:06:37.344Z,6.70
2019-05-07T15:09:06.998Z,7.43
2019-05-07T15:11:36.105Z,7.30
2019-05-07T15:14:05.389Z,7.73
2019-05-07T15:16:34.198Z,6.00
2019-05-07T15:19:02.884Z,7.80
2019-05-07T15:21:32.298Z,8.30
2019-05-07T15:24:04.099Z,7.23
2019-05-07T15:26:34.839Z,7.07
2019-05-07T15:29:05.882Z,7.87
2019-05-07T15:31:36.592Z,7.93
2019-05-07T15:34:05.872Z,8.70
2019-05-07T15:36:34.534Z,8.20
2019-05-07T15:39:05.536Z,9.03
2019-05-07T15:41:34.202Z,10.53
2019-05-07T15:44:02.858Z,6.83
2019-05-07T15:46:32.259Z,6.20
2019-05-07T15:49:01.796Z,6.33
2019-05-07T15:51:30.406Z,7.33
2019-05-07T15:54:00.298Z,11.67
2019-05-07T15:56:28.875Z,8.20
2019-05-07T15:58:57.928Z,7.07
2019-05-07T16:01:26.721Z,6.77
2019-05-07T16:03:55.415Z,6.57
2019-05-07T16:06:24.082Z,7.00
2019-05-07T16:08:54.341Z,8.87
2019-05-07T16:11:23.629Z,7.33
2019-05-07T16:14:06.126Z,8.73
2019-05-07T16:16:37.098Z,7.80
2019-05-07T16:19:12.252Z,10.30
2019-05-07T16:21:42.505Z,7.53
2019-05-07T16:24:12.128Z,7.40
2019-05-07T16:26:41.855Z,8.00
2019-05-07T16:29:13.307Z,7.97
2019-05-07T16:31:44.222Z,6.70
2019-05-07T16:34:12.783Z,6.97
2019-05-07T16:36:41.969Z,7.30
2019-05-07T16:39:12.085Z,6.47
2019-05-07T16:41:42.223Z,8.70
2019-05-07T16:44:12.257Z,6.77
2019-05-07T16:46:42.111Z,7.40
2019-05-07T16:49:12.053Z,6.77
2019-05-07T16:51:44.616Z,7.23
2019-05-07T16:54:12.362Z,6.67
2019-05-07T16:56:42.839Z,10.50
2019-05-07T16:59:12.587Z,7.27
2019-05-07T17:01:42.856Z,8.43
2019-05-07T17:04:12.145Z,7.10
2019-05-07T17:06:42.619Z,10.30
2019-05-07T17:09:13.559Z,7.47
2019-05-07T17:11:43.709Z,9.50
2019-05-07T17:14:13.679Z,7.33
2019-05-07T17:16:43.412Z,7.30
2019-05-07T17:19:14.154Z,8.27
2019-05-07T17:21:45.229Z,8.10
2019-05-07T17:24:14.022Z,15.07
2019-05-07T17:26:44.133Z,7.90
2019-05-07T17:29:13.727Z,10.33
2019-05-07T17:31:42.663Z,7.00
2019-05-07T17:34:12.762Z,5.57
2019-05-07T17:36:44.238Z,4.77
2019-05-07T17:39:13.050Z,5.87
2019-05-07T17:41:42.904Z,5.57
2019-05-07T17:44:12.023Z,7.20
2019-05-07T17:46:42.899Z,6.00
2019-05-07T17:49:12.654Z,6.73
2019-05-07T17:51:43.167Z,5.50
2019-05-07T17:54:13.540Z,9.17
2019-05-07T17:56:43.450Z,9.30
2019-05-07T17:59:13.805Z,7.67
2019-05-07T18:01:43.937Z,9.13
2019-05-07T18:04:12.696Z,9.10
2019-05-07T18:06:42.808Z,7.27
2019-05-07T18:09:12.210Z,5.30
2019-05-07T18:11:42.727Z,4.37
2019-05-07T18:14:11.108Z,4.93
2019-05-07T18:16:56.116Z,5.27
2019-05-07T18:19:24.835Z,7.93
2019-05-07T18:21:53.462Z,7.70
2019-05-07T18:24:22.440Z,10.73
2019-05-07T18:26:52.609Z,7.53
2019-05-07T18:29:22.482Z,7.00
2019-05-07T18:31:58.675Z,11.10
2019-05-07T18:34:27.271Z,5.60
2019-05-07T18:36:55.855Z,9.17
2019-05-07T18:39:24.397Z,6.97
2019-05-07T18:41:52.942Z,9.63
2019-05-07T18:44:22.338Z,5.77
2019-05-07T18:46:52.872Z,8.10
2019-05-07T18:49:21.255Z,13.80
2019-05-07T18:51:52.003Z,5.97
2019-05-07T18:54:27.868Z,7.03
2019-05-07T18:56:50.348Z,6.77
2019-05-07T18:59:22.058Z,13.70
2019-05-07T19:01:52.680Z,7.90
2019-05-07T19:04:21.931Z,9.43
2019-05-07T19:06:51.730Z,7.80
2019-05-07T19:09:22.481Z,6.77
2019-05-07T19:11:52.202Z,6.43
2019-05-07T19:14:22.650Z,7.00
2019-05-07T19:16:52.624Z,6.57
2019-05-07T19:19:22.114Z,8.10
2019-05-07T19:21:52.787Z,6.37
2019-05-07T19:24:23.078Z,12.30
2019-05-07T19:26:52.804Z,13.60
2019-05-07T19:29:23.279Z,10.03
2019-05-07T19:31:52.599Z,7.23
2019-05-07T19:34:21.955Z,8.57
2019-05-07T19:36:52.065Z,8.30
2019-05-07T19:39:23.193Z,6.90
2019-05-07T19:41:52.338Z,6.80
2019-05-07T19:44:21.075Z,12.70
2019-05-07T19:46:49.671Z,8.03
2019-05-07T19:52:15.755Z,7.77
2019-05-07T19:54:57.872Z,10.13
2019-05-07T19:57:25.460Z,12.10
2019-05-07T19:59:54.053Z,9.10
2019-05-07T20:02:26.935Z,6.50
2019-05-07T20:04:54.443Z,7.97
2019-05-07T20:07:23.062Z,9.40
2019-05-07T20:09:52.474Z,10.53
2019-05-07T20:12:21.103Z,14.40
2019-05-07T20:14:51.637Z,9.60
2019-05-07T20:17:22.126Z,6.10
2019-05-07T20:19:52.611Z,10.23
2019-05-07T20:22:22.178Z,11.80
2019-05-07T20:24:52.737Z,8.43
2019-05-07T20:27:23.091Z,8.13
2019-05-07T20:29:52.255Z,6.83
2019-05-07T20:32:22.522Z,12.30
2019-05-07T20:34:52.082Z,11.70
2019-05-07T20:37:22.095Z,11.50
2019-05-07T20:39:53.227Z,13.90
2019-05-07T20:42:23.178Z,20.00
2019-05-07T20:44:53.142Z,8.57
2019-05-07T20:47:22.349Z,8.47
2019-05-07T20:49:50.989Z,12.00
2019-05-07T20:52:19.672Z,13.60
2019-05-07T20:54:49.928Z,8.67
2019-05-07T20:57:22.416Z,13.40
2019-05-07T20:59:51.646Z,8.97
2019-05-07T21:02:22.740Z,8.70
2019-05-07T21:04:51.930Z,10.53
2019-05-07T21:07:22.153Z,12.93
2019-05-07T21:09:53.784Z,16.30
2019-05-07T21:12:22.754Z,9.63
2019-05-07T21:14:52.460Z,12.50
2019-05-07T21:17:22.872Z,19.40
2019-05-07T21:19:52.158Z,14.10
2019-05-07T21:22:22.644Z,14.33
2019-05-07T21:24:53.298Z,12.20
2019-05-07T21:27:23.242Z,13.63
2019-05-07T21:29:52.845Z,9.80
2019-05-07T21:32:23.058Z,10.73
2019-05-07T21:34:52.869Z,12.50
2019-05-07T21:37:22.880Z,12.53
2019-05-07T21:39:53.180Z,14.90
2019-05-07T21:42:22.809Z,12.90
2019-05-07T21:44:52.730Z,16.03
2019-05-07T21:47:22.282Z,15.37
2019-05-07T21:49:57.468Z,12.37
2019-05-07T21:52:27.358Z,13.23
2019-05-07T21:55:02.404Z,11.00
2019-05-07T21:57:33.051Z,13.93
2019-05-07T22:00:12.624Z,12.90
2019-05-07T22:02:42.419Z,11.27
2019-05-07T22:05:11.975Z,15.47
2019-05-07T22:07:40.481Z,14.20
2019-05-07T22:10:09.183Z,12.00
2019-05-07T22:12:40.126Z,10.73
2019-05-07T22:15:12.758Z,14.47
2019-05-07T22:17:44.158Z,16.80
2019-05-07T22:20:11.966Z,9.73
2019-05-07T22:22:42.244Z,15.50
2019-05-07T22:25:13.085Z,15.00
2019-05-07T22:27:42.173Z,9.30
2019-05-07T22:30:12.817Z,10.17
2019-05-07T22:32:52.758Z,10.67
2019-05-07T22:35:26.508Z,10.27
2019-05-07T22:37:55.188Z,11.73
2019-05-07T22:40:23.701Z,12.40
2019-05-07T22:42:52.221Z,7.80
2019-05-07T22:45:22.714Z,8.57
2019-05-07T22:47:52.559Z,10.53
2019-05-07T22:50:22.567Z,11.83
2019-05-07T22:52:54.206Z,11.37
2019-05-07T22:55:21.799Z,12.63
2019-05-07T22:58:04.340Z,12.10
2019-05-07T23:00:34.625Z,11.53
2019-05-07T23:03:03.234Z,12.57
2019-05-07T23:05:32.467Z,8.90
2019-05-07T23:08:02.370Z,10.43
2019-05-07T23:10:33.235Z,10.70
2019-05-07T23:13:02.416Z,13.20
2019-05-07T23:15:32.143Z,12.53
2019-05-07T23:18:04.165Z,12.93
2019-05-07T23:20:32.009Z,11.63
2019-05-07T23:23:00.811Z,10.03
2019-05-07T23:25:29.351Z,10.20
2019-05-07T23:27:57.997Z,10.20
2019-05-07T23:30:26.495Z,10.80
2019-05-07T23:32:55.081Z,11.93
2019-05-07T23:35:23.670Z,10.13
2019-05-07T23:37:52.994Z,9.97
2019-05-07T23:40:32.227Z,12.00
2019-05-07T23:43:04.861Z,16.47
2019-05-07T23:45:33.365Z,15.80
2019-05-07T23:48:02.806Z,14.63
2019-05-07T23:50:32.382Z,14.87
2019-05-07T23:53:02.266Z,12.80
2019-05-07T23:55:31.855Z,13.43
2019-05-07T23:58:00.462Z,9.40
